Latest Coastal Weather Observations for Double Island Point

IDQ60701

Issued at 1:42 am EST Friday 29 January 2021 (issued every 10 minutes, with the page automatically refreshed every 10 minutes)

About coastal observations | Map of coastal stations | Coastal observations for QLD | Marine services | Other Formats
Station Details ID: 040068 Name: DOUBLE ISLAND POINT LIGHTHOUSE Lat: -25.93 Lon: 153.19 Height: 95.64 m
Data from the previous 72 hours. | See also: Recent months at Double Island Point
Date/Time
EST
Wind Sea
Height
m
Swell Vis
km
Cloud Weather Temp
°C
Press
MSL
hPa
Rain since
9am
mm
Dir  Spd
kts
Gust
kts
Height
m
Period
s
Dir
29/01:30am ESE 21 28 - - - - - - - 22.6 1010.1 0.8
29/01:00am ESE 23 26 - - - - - - - 24.6 1010.4 0.2
29/12:30am ESE 26 31 - - - - - - - 24.7 1010.4 0.2
29/12:00am ESE 24 28 - - - - - - - 24.7 1010.6 0.2
 
Date/Time
EST
Wind Sea
Height
m
Swell Vis
km
Cloud Weather Temp
°C
Press
MSL
hPa
Rain since
9am
mm
Dir  Spd
kts
Gust
kts
Height
m
Period
s
Dir
28/11:30pm ESE 27 32 - - - - - - - 24.9 1010.8 0.2
28/11:00pm ESE 26 30 - - - - - - - 24.9 1010.8 0.2
28/10:30pm ESE 25 30 - - - - - - - 25.0 1011.0 0.2
28/10:00pm ESE 26 29 - - - - - - - 25.0 1011.2 0.2
28/09:30pm ESE 23 28 - - - - - - - 25.0 1011.2 0.2
28/09:00pm ESE 25 28 - - - - - - - 24.9 1011.2 0.2
28/08:30pm ESE 25 27 - - - - - - - 24.9 1010.9 0.2
28/08:00pm ESE 23 27 - - - - - - - 25.1 1010.8 0.2
28/07:30pm ESE 24 28 - - - - - - - 25.0 1010.5 0.2
28/07:00pm ESE 25 29 - - - - - - - 25.1 1010.3 0.2
28/06:30pm ESE 21 25 - - - - - - - 25.0 1010.1 0.2
28/06:00pm SE 22 25 - - - - - - - 25.2 1009.7 0.2
28/05:30pm ESE 23 26 - - - - - - - 25.3 1009.6 0.2
28/05:00pm ESE 23 27 - - - - - - - 25.4 1009.5 0.2
28/04:30pm SE 22 26 - - - - - - - 25.9 1009.4 0.2
28/04:00pm SE 24 29 - - - - - - - 26.0 1009.1 0.2
28/03:30pm SE 24 28 - - - - - - - 26.1 1009.1 0.2
28/03:00pm SE 23 27 - - - - - - - 26.1 1009.3 0.2
28/02:30pm ESE 25 29 - - - - - - - 26.2 1009.6 0.2
28/02:00pm SE 24 29 - - - - - - - 26.2 1009.7 0.2
28/01:30pm SE 21 23 - - - - - - - 26.6 1010.1 0.2
28/01:00pm SE 18 22 - - - - - - - 26.8 1010.4 0.2
28/12:30pm ESE 17 19 - - - - - - - 26.1 1010.8 0.2
28/12:00pm E 22 26 - - - - - - - 26.2 1010.8 0.2
28/11:46am ESE 21 31 - - - - - - - 26.3 1010.7 0.2
28/11:30am SE 22 25 - - - - - - - 26.6 1010.9 0.2
28/11:00am ESE 21 26 - - - - - - - 26.8 1011.0 0.2
28/10:30am ESE 22 26 - - - - - - - 26.1 1011.0 0.2
28/10:00am ESE 22 26 - - - - - - - 26.1 1011.1 0.2
28/09:54am ESE 21 27 - - - - - - - 25.8 1011.2 0.2
28/09:30am SSE 14 20 - - - - - - - 23.8 1011.4 0.2
28/09:00am ESE 11 16 - - - - - - Recent precip. 23.1 1011.3 1.2
28/08:50am E 18 28 - - - - - - - 22.6 1011.2 1.2
28/08:30am ESE 21 25 - - - - - - - 24.1 1010.9 0.4
28/08:05am ESE 20 30 - - - - - - - 23.9 1011.1 0.4
28/08:00am ESE 21 25 - - - - - - - 25.6 1011.0 0.0
28/07:30am ESE 20 24 - - - - - - - 26.3 1010.5 0.0
28/07:00am ESE 23 26 - - - - - - - 26.1 1010.3 0.0
28/06:30am ESE 21 25 - - - - - - - 25.2 1010.0 0.0
28/06:00am ESE 21 24 - - - - - - - 25.3 1009.6 0.0
28/05:30am ESE 19 22 - - - - - - - 24.7 1009.3 0.0
28/05:00am ESE 19 22 - - - - - - - 24.3 1008.9 0.0
28/04:30am ESE 21 27 - - - - - - - 24.0 1008.6 0.0
28/04:22am ESE 16 27 - - - - - - - 24.0 1008.6 0.0
28/04:00am ESE 14 16 - - - - - - - 23.8 1008.7 0.0
28/03:30am E 14 16 - - - - - - - 23.4 1008.5 0.0
28/03:00am ESE 22 27 - - - - - - - 23.9 1008.4 0.0
28/02:56am ESE 19 27 - - - - - - - 24.2 1008.3 0.0
28/02:30am SE 14 17 - - - - - - - 24.8 1008.6 0.0
28/02:00am SE 13 16 - - - - - - - 24.7 1008.8 0.0
28/01:30am ESE 15 17 - - - - - - - 24.7 1008.9 0.0
28/01:00am SE 17 19 - - - - - - - 24.9 1008.9 0.0
28/12:30am ESE 17 19 - - - - - - - 24.7 1009.1 0.0
28/12:00am ESE 15 17 - - - - - - - 24.7 1009.3 0.0
 
Date/Time
EST
Wind Sea
Height
m
Swell Vis
km
Cloud Weather Temp
°C
Press
MSL
hPa
Rain since
9am
mm
Dir  Spd
kts
Gust
kts
Height
m
Period
s
Dir
27/11:30pm ESE 14 17 - - - - - - - 24.8 1009.6 0.0
27/11:00pm ESE 15 18 - - - - - - - 24.8 1009.7 0.0
27/10:30pm ESE 14 17 - - - - - - - 24.8 1009.7 0.0
27/10:00pm ESE 17 18 - - - - - - - 24.9 1009.9 0.0
27/09:30pm E 15 19 - - - - - - - 24.9 1009.9 0.0
27/09:00pm E 15 18 - - - - - - - 24.9 1010.0 0.0
27/08:30pm E 15 17 - - - - - - - 25.1 1009.8 0.0
27/08:00pm E 17 19 - - - - - - - 25.2 1009.5 0.0
27/07:30pm E 15 17 - - - - - - - 25.2 1009.4 0.0
27/07:00pm E 16 19 - - - - - - - 25.3 1009.1 0.0
27/06:30pm ESE 15 16 - - - - - - - 25.5 1008.8 0.0
27/06:00pm E 15 17 - - - - - - - 25.6 1008.5 0.0
27/05:30pm ESE 13 15 - - - - - - - 26.1 1008.2 0.0
27/05:00pm ESE 13 15 - - - - - - - 26.7 1008.1 0.0
27/04:30pm ESE 12 14 - - - - - - - 27.1 1008.0 0.0
27/04:00pm E 10 12 - - - - - - - 27.7 1008.0 0.0
27/03:30pm E 10 11 - - - - - - - 28.0 1007.9 0.0
27/03:00pm E 10 11 - - - - - - - 28.8 1008.0 0.0
27/02:30pm ENE 8 10 - - - - - - - 28.9 1008.3 0.0
27/02:00pm ESE 9 11 - - - - - - - 26.9 1008.5 0.0
27/01:30pm E 11 14 - - - - - - - 27.2 1008.6 0.0
27/01:00pm E 13 17 - - - - - - - 26.6 1008.5 0.0
27/12:30pm E 8 10 - - - - - - - 28.9 1008.6 0.0
27/12:00pm ENE 7 9 - - - - - - - 30.7 1008.8 0.0
27/11:30am E 7 9 - - - - - - - 29.9 1008.9 0.0
27/11:00am E 7 10 - - - - - - - 30.5 1009.1 0.0
27/10:30am E 8 10 - - - - - - - 30.8 1009.2 0.0
27/10:00am ENE 6 9 - - - - - - - 30.4 1009.3 0.0
27/09:30am E 9 11 - - - - - - - 28.5 1009.2 0.0
27/09:00am E 8 10 - - - - - - - 29.6 1009.0 0.0
27/08:30am E 8 9 - - - - - - - 29.1 1009.0 0.0
27/08:00am E 7 9 - - - - - - - 27.9 1008.7 0.0
27/07:30am E 11 14 - - - - - - - 25.5 1008.5 0.0
27/07:00am E 9 11 - - - - - - - 25.2 1008.3 0.0
27/06:30am E 8 9 - - - - - - - 25.0 1008.0 0.0
27/06:00am E 7 8 - - - - - - - 24.5 1007.7 0.0
27/05:30am ENE 5 6 - - - - - - - 24.3 1007.5 0.0
27/05:00am NE 5 7 - - - - - - - 24.3 1007.2 0.0
27/04:30am NNE 4 6 - - - - - - - 24.1 1007.0 0.0
27/04:00am NE 5 7 - - - - - - - 24.0 1006.6 0.0
27/03:30am NE 5 7 - - - - - - - 24.0 1006.7 0.0
27/03:00am NE 5 8 - - - - - - - 24.0 1006.8 0.0
27/02:30am NNE 8 11 - - - - - - - 24.3 1006.7 0.0
27/02:00am NNE 10 12 - - - - - - - 24.4 1007.0 0.0
27/01:30am NNE 8 11 - - - - - - - 24.3 1007.0 0.0
27/01:00am NE 9 13 - - - - - - - 24.5 1007.1 0.0
27/12:30am NNE 6 8 - - - - - - - 24.5 1007.4 0.0
27/12:00am ENE 8 11 - - - - - - - 24.5 1007.5 0.0
 
Date/Time
EST
Wind Sea
Height
m
Swell Vis
km
Cloud Weather Temp
°C
Press
MSL
hPa
Rain since
9am
mm
Dir  Spd
kts
Gust
kts
Height
m
Period
s
Dir
26/11:30pm ENE 8 11 - - - - - - - 24.5 1007.9 0.0
26/11:00pm ENE 12 15 - - - - - - - 24.7 1008.0 0.0
26/10:30pm ENE 13 16 - - - - - - - 24.9 1008.3 0.0
26/10:00pm ENE 15 17 - - - - - - - 25.0 1008.5 0.0
26/09:30pm E 11 14 - - - - - - - 24.9 1008.5 0.0
26/09:00pm E 12 14 - - - - - - - 24.7 1008.2 0.0
26/08:30pm E 12 15 - - - - - - - 24.9 1007.9 0.0
26/08:00pm E 13 15 - - - - - - - 24.8 1007.5 0.0
26/07:30pm E 13 15 - - - - - - - 24.9 1007.1 0.0
26/07:00pm E 13 14 - - - - - - - 24.9 1006.8 0.0
26/06:30pm E 13 15 - - - - - - - 25.1 1006.6 0.0
26/06:00pm E 12 14 - - - - - - - 25.3 1006.2 0.0
26/05:30pm ESE 12 14 - - - - - - - 25.8 1005.9 0.0
26/05:00pm ESE 12 14 - - - - - - - 26.1 1005.6 0.0
26/04:30pm ESE 11 14 - - - - - - - 26.7 1005.5 0.0
26/04:00pm ESE 11 13 - - - - - - - 26.5 1005.7 0.0
26/03:30pm ESE 12 14 - - - - - - - 27.0 1005.9 0.0
26/03:00pm ESE 10 11 - - - - - - - 27.4 1006.0 0.0
26/02:30pm ESE 11 13 - - - - - - - 27.6 1006.1 0.0
26/02:00pm ESE 11 13 - - - - - - - 27.7 1006.4 0.0
26/01:30pm ESE 11 13 - - - - - - - 28.7 1006.9 0.0
26/01:00pm SE 13 15 - - - - - - - 27.4 1007.0 0.0
26/12:30pm SSE 11 14 - - - - - - - 28.1 1007.4 0.0
26/12:00pm SE 11 14 - - - - - - - 27.6 1007.7 0.0
26/11:30am SE 10 11 - - - - - - - 27.6 1007.8 0.0
26/11:00am SSE 9 11 - - - - - - - 28.1 1008.2 0.0
26/10:30am SSE 9 11 - - - - - - - 27.8 1008.4 0.0
26/10:00am SE 8 11 - - - - - - - 27.6 1008.5 0.0
26/09:30am SE 8 11 - - - - - - - 27.0 1008.6 0.0
26/09:00am SE 9 11 - - - - - - - 26.8 1008.7 0.0
26/08:30am SSE 9 11 - - - - - - - 26.5 1008.8 0.0
26/08:00am SE 8 10 - - - - - - - 25.9 1008.9 0.0
26/07:30am S 9 11 - - - - - - - 25.7 1008.9 0.0
26/07:00am S 10 12 - - - - - - - 23.5 1008.7 0.0
26/06:30am S 8 11 - - - - - - - 23.4 1008.6 0.0
26/06:00am S 9 10 - - - - - - - 22.3 1008.3 0.0
26/05:30am S 9 10 - - - - - - - 22.1 1008.0 0.0
26/05:00am SSW 9 9 - - - - - - - 22.0 1007.8 0.0
26/04:30am S 8 9 - - - - - - - 22.3 1007.4 0.0
26/04:00am ESE 5 6 - - - - - - - 22.6 1007.3 0.0
26/03:30am ESE 2 4 - - - - - - - 23.1 1007.4 0.0
26/03:00am E 5 7 - - - - - - - 23.1 1007.4 0.0
26/02:30am E 5 8 - - - - - - - 23.2 1007.8 0.0
26/02:00am E 5 6 - - - - - - - 23.3 1008.1 0.0

Other formats

Comma delimited format used in spreadsheet applications
http://www.bom.gov.au/fwo/IDQ60701/IDQ60701.94584.axf

JavaScript Object Notation format (JSON) in row-major order
http://www.bom.gov.au/fwo/IDQ60701/IDQ60701.94584.json

Data quality

Most of these data are generated automatically and are frequently updated. Quality checks on data are not normally performed. It is possible for incorrect values to appear. Refer to information at About Latest Weather Observations and please check the disclaimer before using these data.